Time;durP1;ratioP1;P1;durP2;ratioP2;P2;SDS_P1;SDS_P2;PMS_P1;PMS_P2;Temp;Humidity;BMP_temperature;BMP_pressure;BME280_temperature;BME280_humidity;BME280_pressure;Samples;Min_cycle;Max_cycle;Signal;HPM_P1;HPM_P2
2022/11/04 00:00:33;;;;;;;24.10;10.73;;;6.00;99.90;;;;;;5018700;28;20296;-73
2022/11/04 00:03:02;;;;;;;24.87;11.40;;;6.00;99.90;;;;;;5018545;28;20702;-73
2022/11/04 00:05:28;;;;;;;24.33;11.77;;;6.00;99.90;;;;;;5018694;28;20244;-72
2022/11/04 00:13:29;;;;;;;23.77;11.20;;;5.90;99.90;;;;;;5036527;28;20209;-72
2022/11/04 00:18:45;;;;;;;22.93;10.33;;;5.90;99.90;;;;;;5035876;28;20332;-70
2022/11/04 00:29:36;;;;;;;22.63;9.97;;;5.90;99.90;;;;;;5005842;28;20209;-72
2022/11/04 00:34:48;;;;;;;23.97;10.67;;;5.90;99.90;;;;;;5017857;28;20199;-72
2022/11/04 00:37:15;;;;;;;23.03;11.40;;;5.80;99.90;;;;;;5017849;28;20645;-72
2022/11/04 00:39:42;;;;;;;20.80;10.20;;;5.80;99.90;;;;;;5018489;28;20190;-71
2022/11/04 00:42:09;;;;;;;24.57;10.07;;;5.90;99.90;;;;;;5035529;28;20278;-71
2022/11/04 00:44:36;;;;;;;24.73;9.57;;;5.90;99.90;;;;;;5035574;28;20197;-71
2022/11/04 00:47:03;;;;;;;22.37;9.93;;;5.90;99.90;;;;;;5017777;28;20200;-70
2022/11/04 00:49:29;;;;;;;21.83;9.63;;;5.80;99.90;;;;;;5017688;28;20230;-71
2022/11/04 00:51:56;;;;;;;18.50;9.50;;;5.80;99.90;;;;;;5017696;28;20203;-71
2022/11/04 00:54:23;;;;;;;21.70;10.03;;;5.90;99.90;;;;;;5017462;28;20540;-72
2022/11/04 00:56:52;;;;;;;19.53;9.70;;;5.80;99.90;;;;;;5017515;28;20539;-70
2022/11/04 00:59:19;;;;;;;19.60;9.37;;;5.80;99.90;;;;;;5001424;28;20202;-73
2022/11/04 01:01:46;;;;;;;20.60;9.50;;;5.80;99.90;;;;;;5035209;28;20257;-73
2022/11/04 01:04:13;;;;;;;19.47;9.60;;;5.80;99.90;;;;;;5017210;28;20229;-72
2022/11/04 01:06:40;;;;;;;20.93;9.33;;;5.90;99.90;;;;;;5017627;28;20193;-72
2022/11/04 01:09:10;;;;;;;21.40;9.30;;;5.80;99.90;;;;;;5017308;28;20221;-72
2022/11/04 01:11:37;;;;;;;22.27;9.80;;;5.90;99.90;;;;;;5017515;28;20202;-73
2022/11/04 01:14:04;;;;;;;24.30;9.60;;;5.90;99.90;;;;;;5017602;28;20193;-72
2022/11/04 01:16:32;;;;;;;21.57;10.30;;;5.90;99.90;;;;;;5017276;28;20284;-70
2022/11/04 01:18:59;;;;;;;24.03;9.73;;;6.00;99.90;;;;;;5016957;28;20219;-72
2022/11/04 01:21:26;;;;;;;24.27;10.03;;;6.00;99.90;;;;;;5034818;28;20189;-71
2022/11/04 01:23:53;;;;;;;21.97;10.17;;;6.00;99.90;;;;;;5017307;28;20203;-70
2022/11/04 01:26:22;;;;;;;20.23;9.43;;;6.00;99.90;;;;;;5017279;28;20198;-71
2022/11/04 01:28:51;;;;;;;23.47;10.10;;;6.00;99.90;;;;;;5035101;28;20225;-71
2022/11/04 01:31:21;;;;;;;22.23;9.70;;;6.00;99.90;;;;;;5017030;28;20195;-70
2022/11/04 01:33:50;;;;;;;26.27;9.90;;;6.00;99.90;;;;;;5016674;28;20566;-73
2022/11/04 01:36:17;;;;;;;22.73;10.07;;;6.10;99.90;;;;;;5016810;28;20256;-74
2022/11/04 01:38:44;;;;;;;20.43;9.70;;;6.00;99.90;;;;;;5017055;28;20189;-74
2022/11/04 01:41:22;;;;;;;21.00;10.30;;;6.00;99.90;;;;;;5017265;28;20201;-73
2022/11/04 01:43:53;;;;;;;19.43;9.53;;;6.00;99.90;;;;;;5017129;28;20198;-73
2022/11/04 01:46:44;;;;;;;21.53;9.63;;;6.10;99.90;;;;;;5017042;28;20605;-73
2022/11/04 01:49:23;;;;;;;20.70;9.87;;;6.20;99.90;;;;;;5017030;28;20284;-73
2022/11/04 01:51:55;;;;;;;22.20;10.17;;;6.30;99.90;;;;;;5016719;28;20205;-73
2022/11/04 01:54:22;;;;;;;18.57;9.67;;;6.30;99.90;;;;;;5016649;28;20193;-74
2022/11/04 01:56:50;;;;;;;20.73;10.23;;;6.30;99.90;;;;;;5016461;28;20598;-74
2022/11/04 01:59:26;;;;;;;21.43;10.13;;;6.40;99.90;;;;;;5016426;28;20202;-73
2022/11/04 02:01:53;;;;;;;18.40;9.57;;;6.40;99.90;;;;;;5016335;28;20209;-73
2022/11/04 02:04:26;;;;;;;17.27;9.73;;;6.50;99.90;;;;;;5033986;28;20221;-73
2022/11/04 02:07:05;;;;;;;17.57;9.20;;;6.50;99.90;;;;;;5016159;28;20652;-73
2022/11/04 02:09:34;;;;;;;22.20;10.30;;;6.60;99.90;;;;;;5016235;28;20212;-73
2022/11/04 02:14:48;;;;;;;19.97;9.20;;;6.60;99.90;;;;;;5015979;28;20210;-72
2022/11/04 02:17:18;;;;;;;19.80;9.30;;;6.60;99.90;;;;;;5033765;28;20190;-73
2022/11/04 02:20:15;;;;;;;20.30;9.50;;;6.60;99.90;;;;;;5016309;28;20204;-73
2022/11/04 02:22:58;;;;;;;20.20;9.67;;;6.60;99.90;;;;;;5016256;28;20198;-73
2022/11/04 02:25:51;;;;;;;23.90;9.33;;;6.60;99.90;;;;;;5015989;28;20204;-74
2022/11/04 02:28:37;;;;;;;24.20;10.27;;;6.60;99.90;;;;;;4993762;28;20232;-74
2022/11/04 02:31:30;;;;;;;20.17;9.80;;;6.60;99.90;;;;;;5015926;28;20199;-74
2022/11/04 02:34:17;;;;;;;20.77;9.83;;;6.60;99.90;;;;;;4937378;29;20232;-72
2022/11/04 02:37:08;;;;;;;20.93;8.53;;;6.60;99.90;;;;;;4915013;29;20198;-73
2022/11/04 02:39:58;;;;;;;23.30;9.50;;;6.60;99.90;;;;;;4899483;29;20206;-73
2022/11/04 02:42:36;;;;;;;21.63;9.53;;;6.60;99.90;;;;;;4915419;29;20725;-74
2022/11/04 02:45:15;;;;;;;21.60;9.73;;;6.50;99.90;;;;;;4915124;29;20210;-73
2022/11/04 02:47:48;;;;;;;19.23;8.83;;;6.50;99.90;;;;;;4899411;29;20691;-74
2022/11/04 02:50:49;;;;;;;18.00;8.63;;;6.50;99.90;;;;;;4915129;29;20662;-74
2022/11/04 02:53:27;;;;;;;16.93;8.60;;;6.50;99.90;;;;;;4899321;29;20214;-74
2022/11/04 02:55:57;;;;;;;17.03;8.63;;;6.40;99.90;;;;;;4899126;29;20215;-73
2022/11/04 02:58:33;;;;;;;18.37;8.73;;;6.50;99.90;;;;;;4915112;29;20211;-74
2022/11/04 03:01:02;;;;;;;17.60;8.20;;;6.40;99.90;;;;;;4915192;29;20218;-74
2022/11/04 03:03:38;;;;;;;17.50;8.27;;;6.50;99.90;;;;;;4914619;29;20234;-73
2022/11/04 03:06:08;;;;;;;18.33;8.60;;;6.50;99.90;;;;;;4899089;29;20217;-74
2022/11/04 03:08:42;;;;;;;19.90;8.97;;;6.50;99.90;;;;;;4914544;29;20220;-74
2022/11/04 03:11:15;;;;;;;20.57;8.30;;;6.50;99.90;;;;;;4944539;28;20240;-74
2022/11/04 03:14:07;;;;;;;18.97;8.17;;;6.60;99.90;;;;;;4981637;28;20746;-73
2022/11/04 03:16:43;;;;;;;18.63;8.03;;;6.60;99.90;;;;;;5015431;28;20202;-74
2022/11/04 03:19:32;;;;;;;18.40;8.17;;;6.60;99.90;;;;;;5014510;28;20224;-73
2022/11/04 03:22:05;;;;;;;19.37;8.37;;;6.70;99.90;;;;;;5014960;28;20203;-73
2022/11/04 03:24:32;;;;;;;17.47;8.77;;;6.70;99.90;;;;;;5015379;28;20198;-73
2022/11/04 03:27:17;;;;;;;17.47;8.63;;;6.70;99.90;;;;;;5032822;28;20194;-73
2022/11/04 03:29:49;;;;;;;15.70;8.20;;;6.70;99.90;;;;;;5015046;28;20263;-73
2022/11/04 03:32:23;;;;;;;17.10;8.77;;;6.70;99.90;;;;;;5032733;28;20215;-74
2022/11/04 03:34:50;;;;;;;16.40;8.27;;;6.70;99.90;;;;;;5033089;28;20196;-74
2022/11/04 03:37:17;;;;;;;16.97;8.70;;;6.70;99.90;;;;;;5015038;28;20302;-74
2022/11/04 03:39:44;;;;;;;17.67;8.07;;;6.80;99.90;;;;;;5015645;28;20646;-74
2022/11/04 03:42:18;;;;;;;18.07;8.40;;;6.70;99.90;;;;;;5015224;28;20627;-74
2022/11/04 03:44:52;;;;;;;19.53;8.30;;;6.80;99.90;;;;;;5014987;28;20295;-75
2022/11/04 03:47:21;;;;;;;19.27;8.10;;;6.80;99.90;;;;;;5015001;28;20192;-75
2022/11/04 03:49:51;;;;;;;18.70;8.10;;;6.90;99.90;;;;;;5014918;28;20215;-75
2022/11/04 03:52:18;;;;;;;18.77;8.37;;;6.90;99.90;;;;;;5015158;28;20253;-74
2022/11/04 03:54:46;;;;;;;17.17;8.70;;;6.90;99.90;;;;;;5032406;28;20282;-74
2022/11/04 03:57:28;;;;;;;18.77;8.80;;;7.00;99.90;;;;;;5015031;28;20194;-74
2022/11/04 04:00:09;;;;;;;16.27;8.03;;;6.90;99.90;;;;;;5014834;28;20195;-73
2022/11/04 04:03:00;;;;;;;19.43;8.13;;;6.90;99.90;;;;;;5014533;28;20244;-74
2022/11/04 04:05:38;;;;;;;15.30;8.00;;;6.90;99.90;;;;;;5014530;28;20202;-73
2022/11/04 04:08:38;;;;;;;19.33;8.30;;;6.90;99.90;;;;;;5032452;28;20598;-73
2022/11/04 04:11:36;;;;;;;18.07;8.40;;;6.90;99.90;;;;;;5032438;28;20206;-73
2022/11/04 04:14:37;;;;;;;16.23;7.90;;;7.00;99.90;;;;;;5014675;28;20184;-73
2022/11/04 04:17:30;;;;;;;16.40;7.67;;;7.00;99.90;;;;;;5014667;28;20198;-73
2022/11/04 04:20:04;;;;;;;17.70;7.97;;;6.90;99.90;;;;;;5014610;28;20219;-73
2022/11/04 04:22:42;;;;;;;16.27;8.13;;;6.90;99.90;;;;;;5014358;28;20651;-73
2022/11/04 04:27:59;;;;;;;17.47;7.57;;;7.00;99.90;;;;;;5014746;28;20199;-74
2022/11/04 04:30:26;;;;;;;17.17;7.87;;;6.90;99.90;;;;;;5033667;28;20698;-73
2022/11/04 04:33:07;;;;;;;19.23;7.87;;;6.90;99.90;;;;;;5017962;28;20640;-73
2022/11/04 04:35:43;;;;;;;16.87;8.10;;;7.00;99.90;;;;;;5018448;28;20199;-75
2022/11/04 04:47:18;;;;;;;20.43;8.03;;;7.20;99.90;;;;;;5017964;28;20233;-73
2022/11/04 04:49:54;;;;;;;14.30;7.70;;;7.20;99.90;;;;;;5035437;28;20557;-74
2022/11/04 04:52:23;;;;;;;15.57;7.57;;;7.20;99.90;;;;;;5035405;28;20330;-75
2022/11/04 04:54:50;;;;;;;16.50;7.70;;;7.20;99.90;;;;;;5017855;28;20198;-73
2022/11/04 04:57:17;;;;;;;15.97;7.73;;;7.30;99.90;;;;;;5017957;28;20550;-73
2022/11/04 04:59:44;;;;;;;17.60;8.10;;;7.30;99.90;;;;;;5001623;28;20234;-73
2022/11/04 05:02:11;;;;;;;15.13;7.67;;;7.30;99.90;;;;;;5017707;28;20489;-73
2022/11/04 05:04:38;;;;;;;14.83;7.17;;;7.40;99.90;;;;;;5017207;28;20291;-75
2022/11/04 05:07:08;;;;;;;14.03;6.83;;;7.30;99.90;;;;;;5017289;28;20680;-73
2022/11/04 05:09:36;;;;;;;18.10;7.80;;;7.40;99.90;;;;;;5035052;28;20210;-73
2022/11/04 05:12:03;;;;;;;17.33;7.27;;;7.40;99.90;;;;;;5017266;28;20198;-73
2022/11/04 05:14:30;;;;;;;12.43;7.50;;;7.40;99.90;;;;;;5017162;28;20203;-72
2022/11/04 05:16:58;;;;;;;12.77;6.93;;;7.40;99.90;;;;;;5035045;28;20327;-73
2022/11/04 05:19:25;;;;;;;13.67;7.27;;;7.30;99.90;;;;;;5017042;28;20223;-75
2022/11/04 05:21:52;;;;;;;15.93;8.00;;;7.30;99.90;;;;;;5017113;28;20654;-76
2022/11/04 05:24:18;;;;;;;16.27;7.63;;;7.30;99.90;;;;;;5017040;28;20322;-73
2022/11/04 05:26:46;;;;;;;14.47;7.57;;;7.30;99.90;;;;;;5034873;28;20595;-73
2022/11/04 05:29:14;;;;;;;18.10;7.57;;;7.30;99.90;;;;;;5017206;28;20214;-74
2022/11/04 05:31:46;;;;;;;17.80;8.17;;;7.30;99.90;;;;;;5034774;28;20497;-75
2022/11/04 05:34:13;;;;;;;17.50;7.47;;;7.30;99.90;;;;;;5016856;28;20202;-74
2022/11/04 05:36:40;;;;;;;19.17;8.23;;;7.20;99.90;;;;;;5034620;28;20182;-73
2022/11/04 05:39:11;;;;;;;15.47;7.73;;;7.20;99.90;;;;;;5016790;28;20213;-73
2022/11/04 05:41:40;;;;;;;16.30;7.10;;;7.30;99.90;;;;;;5016537;28;20253;-73
2022/11/04 05:44:09;;;;;;;16.03;7.20;;;7.30;99.90;;;;;;5016894;28;20193;-73
2022/11/04 05:46:36;;;;;;;15.33;7.50;;;7.30;99.90;;;;;;5016780;28;20202;-73
2022/11/04 05:49:04;;;;;;;16.80;6.73;;;7.30;99.90;;;;;;5034157;28;20223;-73
2022/11/04 05:51:31;;;;;;;13.83;7.20;;;7.40;99.90;;;;;;5034565;28;20217;-73
2022/11/04 05:53:58;;;;;;;17.63;7.60;;;7.40;99.90;;;;;;5016369;28;20203;-73
2022/11/04 05:56:26;;;;;;;14.13;6.63;;;7.40;99.90;;;;;;5034250;28;20187;-73
2022/11/04 05:58:53;;;;;;;11.73;6.50;;;7.40;99.90;;;;;;5034504;28;20199;-73
2022/11/04 06:01:29;;;;;;;18.40;7.60;;;7.40;99.90;;;;;;5034152;28;20285;-73
2022/11/04 06:03:58;;;;;;;16.37;7.33;;;7.40;99.90;;;;;;5033955;28;20332;-74
2022/11/04 06:06:27;;;;;;;17.00;7.03;;;7.40;99.90;;;;;;5034034;28;20632;-74
2022/11/04 06:08:54;;;;;;;18.50;7.00;;;7.50;99.90;;;;;;5016206;28;20228;-72
2022/11/04 06:11:23;;;;;;;16.33;7.00;;;7.50;99.90;;;;;;5016099;28;20196;-73
2022/11/04 06:13:50;;;;;;;13.50;6.87;;;7.60;99.90;;;;;;5016059;28;20206;-74
2022/11/04 06:16:17;;;;;;;16.73;6.93;;;7.50;99.90;;;;;;5015882;28;20292;-74
2022/11/04 06:18:44;;;;;;;17.47;6.90;;;7.60;99.90;;;;;;5015921;28;20316;-74
2022/11/04 06:21:14;;;;;;;12.90;6.33;;;7.60;99.90;;;;;;5016527;28;20191;-73
2022/11/04 06:23:42;;;;;;;13.07;6.87;;;7.60;99.90;;;;;;5015838;28;20249;-74
2022/11/04 06:26:10;;;;;;;16.37;6.93;;;7.60;99.90;;;;;;5033735;28;20195;-72
2022/11/04 06:28:37;;;;;;;14.47;6.53;;;7.60;99.90;;;;;;5053834;28;20198;-72
2022/11/04 06:31:07;;;;;;;13.80;6.97;;;7.60;99.90;;;;;;5035585;28;20301;-74
2022/11/04 06:33:34;;;;;;;13.80;6.50;;;7.60;99.90;;;;;;5035358;28;20229;-74
2022/11/04 06:36:06;;;;;;;15.97;7.40;;;7.60;99.90;;;;;;5035718;28;20197;-72
2022/11/04 06:38:36;;;;;;;12.33;6.57;;;7.70;99.90;;;;;;5035769;28;20195;-75
2022/11/04 06:41:05;;;;;;;17.23;7.10;;;7.70;99.90;;;;;;5035232;28;20293;-74
2022/11/04 06:43:37;;;;;;;16.67;6.40;;;7.70;99.90;;;;;;5035130;28;20646;-73
2022/11/04 06:46:04;;;;;;;16.00;7.03;;;7.80;99.90;;;;;;5035226;28;20205;-75
2022/11/04 06:48:31;;;;;;;14.00;6.90;;;7.70;99.90;;;;;;5035364;28;20199;-75
2022/11/04 06:50:59;;;;;;;16.67;7.43;;;7.80;99.90;;;;;;5035166;28;20218;-74
2022/11/04 06:53:28;;;;;;;15.97;6.80;;;7.80;99.90;;;;;;5034505;28;20206;-74
2022/11/04 06:56:02;;;;;;;18.20;7.73;;;7.90;99.90;;;;;;5035127;28;20248;-74
2022/11/04 06:58:29;;;;;;;15.63;7.07;;;7.90;99.90;;;;;;5053078;28;20186;-73
2022/11/04 07:00:56;;;;;;;15.77;6.97;;;8.00;99.90;;;;;;5053006;28;20193;-73
2022/11/04 07:03:24;;;;;;;14.87;7.17;;;8.00;99.90;;;;;;5034964;28;20231;-73
2022/11/04 07:05:51;;;;;;;15.47;6.47;;;7.90;99.90;;;;;;5034767;28;20205;-74
2022/11/04 07:08:18;;;;;;;15.83;6.40;;;8.00;99.90;;;;;;5035386;28;20244;-73
2022/11/04 07:10:45;;;;;;;11.93;6.50;;;8.10;99.90;;;;;;5052752;28;20643;-73
2022/11/04 07:13:11;;;;;;;12.73;6.53;;;8.10;99.90;;;;;;5035263;28;20198;-74
2022/11/04 07:15:39;;;;;;;13.63;6.63;;;8.10;99.90;;;;;;5035006;28;20206;-74
2022/11/04 07:18:05;;;;;;;12.27;6.67;;;8.20;99.90;;;;;;5053075;28;20622;-73
2022/11/04 07:20:35;;;;;;;15.97;6.77;;;8.30;99.90;;;;;;5018909;28;20221;-74
2022/11/04 07:23:02;;;;;;;18.90;6.97;;;8.30;99.90;;;;;;5052220;28;20197;-74
2022/11/04 07:25:29;;;;;;;15.87;6.83;;;8.30;99.90;;;;;;5052744;28;20556;-74
2022/11/04 07:27:56;;;;;;;16.70;6.93;;;8.40;99.90;;;;;;5034679;28;20201;-73
2022/11/04 07:30:28;;;;;;;16.00;6.47;;;8.50;99.90;;;;;;5052440;28;20206;-73
2022/11/04 07:32:55;;;;;;;12.27;6.97;;;8.50;99.90;;;;;;5034594;28;20198;-73
2022/11/04 07:35:22;;;;;;;11.70;6.37;;;8.60;99.90;;;;;;5034761;28;20234;-72
2022/11/04 07:37:49;;;;;;;14.33;7.00;;;8.60;99.90;;;;;;5034428;28;20208;-73
2022/11/04 07:40:16;;;;;;;14.10;7.00;;;8.60;99.90;;;;;;5051629;28;20194;-73
2022/11/04 07:42:43;;;;;;;12.03;6.50;;;8.70;99.90;;;;;;5052297;28;20523;-72
2022/11/04 07:45:10;;;;;;;14.77;7.57;;;8.70;99.90;;;;;;5052644;28;20199;-74
2022/11/04 07:47:36;;;;;;;14.10;6.60;;;8.70;99.90;;;;;;5034788;28;20202;-72
2022/11/04 07:50:04;;;;;;;16.80;7.30;;;8.80;99.90;;;;;;5034760;28;20284;-73
2022/11/04 07:52:37;;;;;;;13.53;7.40;;;8.90;99.90;;;;;;5052238;28;20287;-73
2022/11/04 07:55:04;;;;;;;16.30;7.67;;;8.90;99.90;;;;;;5034396;28;20209;-72
2022/11/04 07:57:31;;;;;;;15.27;7.13;;;8.90;99.90;;;;;;5034557;28;20206;-72
2022/11/04 07:59:58;;;;;;;14.67;7.33;;;8.90;99.90;;;;;;5034545;28;20183;-72
2022/11/04 08:02:25;;;;;;;14.33;7.17;;;8.90;99.90;;;;;;5052265;28;20198;-72
2022/11/04 08:04:59;;;;;;;15.30;7.33;;;9.00;99.90;;;;;;5036883;28;20247;-72
2022/11/04 08:07:26;;;;;;;15.77;7.40;;;8.90;99.90;;;;;;5038460;28;20195;-73
2022/11/04 08:09:53;;;;;;;14.97;7.33;;;8.90;99.90;;;;;;5055857;28;20239;-73
2022/11/04 08:12:22;;;;;;;12.73;7.40;;;9.00;99.90;;;;;;5021570;28;20210;-73
2022/11/04 08:14:50;;;;;;;14.37;7.43;;;9.10;99.90;;;;;;5038017;28;20203;-74
2022/11/04 08:17:17;;;;;;;14.67;7.57;;;9.00;99.90;;;;;;5038225;28;20671;-73
2022/11/04 08:19:43;;;;;;;16.40;7.87;;;9.10;99.90;;;;;;5038447;28;20237;-73
2022/11/04 08:22:10;;;;;;;48.67;11.40;;;9.10;99.90;;;;;;5037892;28;20222;-73
2022/11/04 08:24:38;;;;;;;16.58;8.90;;;9.20;99.90;;;;;;5037149;28;20433;-72
2022/11/04 08:27:08;;;;;;;21.07;7.77;;;9.10;99.90;;;;;;5037716;28;20190;-73
2022/11/04 08:29:36;;;;;;;14.07;7.23;;;9.10;99.90;;;;;;5055753;28;20297;-72
2022/11/04 08:32:03;;;;;;;12.87;7.30;;;9.10;99.90;;;;;;5055862;28;20547;-72
2022/11/04 08:34:30;;;;;;;16.52;7.72;;;9.20;99.90;;;;;;5055513;28;20429;-72
2022/11/04 08:36:59;;;;;;;17.87;7.90;;;9.20;99.90;;;;;;5055638;28;20620;-73
2022/11/04 08:39:26;;;;;;;15.82;8.80;;;9.20;99.90;;;;;;5054359;28;20946;-73
2022/11/04 08:41:52;;;;;;;16.93;7.80;;;9.20;99.90;;;;;;5055927;28;20892;-73
2022/11/04 08:44:19;;;;;;;15.73;7.67;;;9.20;99.90;;;;;;5037788;28;20199;-74
2022/11/04 08:46:47;;;;;;;15.07;7.90;;;9.20;99.90;;;;;;5037575;28;20202;-72
2022/11/04 08:49:14;;;;;;;15.50;7.37;;;9.30;99.90;;;;;;5037591;28;20248;-74
2022/11/04 08:51:53;;;;;;;17.23;7.03;;;9.40;99.90;;;;;;5037356;28;20268;-75
2022/11/04 08:54:21;;;;;;;15.57;7.47;;;9.40;99.90;;;;;;5037106;28;20297;-75
2022/11/04 08:56:48;;;;;;;17.75;8.60;;;9.30;99.90;;;;;;5036331;28;20434;-74
2022/11/04 08:59:16;;;;;;;15.57;7.63;;;9.40;99.90;;;;;;5037266;28;20190;-74
2022/11/04 09:01:43;;;;;;;14.20;7.20;;;9.40;99.90;;;;;;5037230;28;20202;-73
2022/11/04 09:04:11;;;;;;;13.97;7.30;;;9.40;99.90;;;;;;5054831;28;20257;-73
2022/11/04 09:06:42;;;;;;;13.17;7.60;;;9.40;99.90;;;;;;5037070;28;20202;-73
2022/11/04 09:09:13;;;;;;;14.33;7.27;;;9.40;99.90;;;;;;5037067;28;20658;-73
2022/11/04 09:11:43;;;;;;;16.17;7.27;;;9.50;99.90;;;;;;5036855;28;20234;-73
2022/11/04 09:14:11;;;;;;;16.03;7.63;;;9.50;99.90;;;;;;5037023;28;20567;-74
2022/11/04 09:16:39;;;;;;;13.20;7.07;;;9.60;99.90;;;;;;5036299;28;20620;-73
2022/11/04 09:19:06;;;;;;;14.63;7.40;;;9.60;99.90;;;;;;5054879;28;20213;-73
2022/11/04 09:21:33;;;;;;;14.83;7.17;;;9.70;99.90;;;;;;5036975;28;20211;-73
2022/11/04 09:24:00;;;;;;;15.77;7.40;;;9.70;99.90;;;;;;5036890;28;20644;-74
2022/11/04 09:26:27;;;;;;;14.07;6.93;;;9.60;99.90;;;;;;5036716;28;20191;-73
2022/11/04 09:28:56;;;;;;;15.80;7.20;;;9.80;99.90;;;;;;5054704;28;20219;-73
2022/11/04 09:31:29;;;;;;;12.53;6.90;;;9.80;99.90;;;;;;5036542;28;20325;-74
2022/11/04 09:33:56;;;;;;;12.30;6.47;;;9.80;99.90;;;;;;5054251;28;20202;-75
2022/11/04 09:36:23;;;;;;;12.87;6.97;;;9.90;99.90;;;;;;5054406;28;20269;-75
2022/11/04 09:38:50;;;;;;;18.10;7.33;;;9.90;99.90;;;;;;5036484;28;20281;-73
2022/11/04 09:41:20;;;;;;;12.83;6.73;;;9.90;99.90;;;;;;5036257;28;20656;-74
2022/11/04 09:44:02;;;;;;;14.80;7.50;;;9.90;99.90;;;;;;5019253;28;20660;-73
2022/11/04 09:46:31;;;;;;;13.37;6.80;;;9.90;99.90;;;;;;5034090;28;20622;-73
2022/11/04 09:49:04;;;;;;;14.43;7.10;;;9.90;99.90;;;;;;5034374;28;20200;-74
2022/11/04 09:51:31;;;;;;;15.75;8.02;;;10.00;99.90;;;;;;5015750;28;20465;-74
2022/11/04 09:54:21;;;;;;;15.87;7.10;;;10.10;99.90;;;;;;5016243;28;20258;-74
2022/11/04 09:56:50;;;;;;;18.10;7.50;;;10.10;99.90;;;;;;5016454;28;20273;-75
2022/11/04 09:59:26;;;;;;;15.87;6.93;;;10.20;99.90;;;;;;5016397;28;20200;-75
2022/11/04 10:02:17;;;;;;;14.70;6.40;;;10.30;99.90;;;;;;5033947;28;20649;-74
2022/11/04 10:05:36;;;;;;;14.50;7.00;;;10.40;99.90;;;;;;5033760;28;20239;-74
2022/11/04 10:08:40;;;;;;;17.57;7.10;;;10.60;99.90;;;;;;4921825;29;20572;-74
2022/11/04 10:11:19;;;;;;;15.97;7.03;;;10.70;99.90;;;;;;4937945;29;20225;-74
2022/11/04 10:13:49;;;;;;;16.87;7.23;;;10.70;99.90;;;;;;4953557;28;20194;-73
2022/11/04 10:16:43;;;;;;;16.77;7.13;;;11.00;99.90;;;;;;4937593;29;20198;-75
2022/11/04 10:19:45;;;;;;;15.97;7.07;;;11.10;99.90;;;;;;4953447;29;20213;-75
2022/11/04 10:22:30;;;;;;;14.20;6.87;;;11.50;99.90;;;;;;4937533;29;20213;-74
2022/11/04 10:25:02;;;;;;;15.67;7.40;;;11.90;99.90;;;;;;4937196;29;20209;-74
2022/11/04 10:27:33;;;;;;;14.27;6.67;;;12.20;99.90;;;;;;4953416;28;20729;-74
2022/11/04 10:30:11;;;;;;;15.20;6.90;;;12.60;99.90;;;;;;4953332;29;20872;-74
2022/11/04 10:33:00;;;;;;;13.80;7.23;;;12.70;99.90;;;;;;4953039;28;20288;-73
2022/11/04 10:35:29;;;;;;;12.77;6.60;;;12.70;99.90;;;;;;4952740;29;20213;-73
2022/11/04 10:38:07;;;;;;;14.47;6.50;;;12.60;99.90;;;;;;4952964;29;20546;-74
2022/11/04 10:40:38;;;;;;;11.97;7.00;;;12.70;99.90;;;;;;4952537;28;20333;-76
2022/11/04 10:43:09;;;;;;;12.53;6.73;;;12.70;99.90;;;;;;4937248;29;20208;-74
2022/11/04 10:45:45;;;;;;;13.47;6.83;;;12.80;99.90;;;;;;5010935;28;20203;-72
2022/11/04 10:48:20;;;;;;;13.23;7.03;;;12.90;99.90;;;;;;5015557;28;20195;-74
2022/11/04 10:50:54;;;;;;;14.33;6.53;;;13.20;99.90;;;;;;4998996;28;20221;-73
2022/11/04 10:53:27;;;;;;;14.33;6.83;;;13.30;99.90;;;;;;5015389;28;20213;-74
2022/11/04 10:56:17;;;;;;;12.37;6.70;;;13.20;99.90;;;;;;5016067;28;20368;-74
2022/11/04 10:58:47;;;;;;;13.37;6.43;;;13.10;99.90;;;;;;5015113;28;20245;-73
2022/11/04 11:01:28;;;;;;;13.37;6.50;;;12.90;99.90;;;;;;5015303;28;20199;-73
2022/11/04 11:03:56;;;;;;;12.03;6.50;;;12.80;99.90;;;;;;5014697;28;20225;-75
2022/11/04 11:06:27;;;;;;;13.87;6.37;;;12.70;99.90;;;;;;5015011;28;20214;-75
2022/11/04 11:09:18;;;;;;;12.77;6.57;;;12.70;99.90;;;;;;5015067;28;20195;-75
2022/11/04 11:11:48;;;;;;;15.60;6.90;;;12.90;99.90;;;;;;5014266;28;20230;-73
2022/11/04 11:14:27;;;;;;;12.70;7.00;;;13.10;99.90;;;;;;5015077;28;20196;-74
2022/11/04 11:17:13;;;;;;;13.90;6.60;;;13.30;99.90;;;;;;5016354;28;20202;-73
2022/11/04 11:19:52;;;;;;;13.47;7.00;;;13.50;99.90;;;;;;5031091;28;20193;-76
2022/11/04 11:22:47;;;;;;;10.80;6.23;;;13.90;99.90;;;;;;5015171;28;20561;-74
2022/11/04 11:25:27;;;;;;;15.63;7.37;;;14.30;99.90;;;;;;5012123;28;20199;-73
2022/11/04 11:27:54;;;;;;;15.90;7.33;;;14.70;99.90;;;;;;5017855;28;20205;-75
2022/11/04 11:30:27;;;;;;;13.63;6.53;;;15.20;99.90;;;;;;5034387;28;20207;-76
2022/11/04 11:33:26;;;;;;;11.73;6.07;;;15.60;99.90;;;;;;5034354;28;20293;-77
2022/11/04 11:36:15;;;;;;;10.87;6.37;;;16.30;99.90;;;;;;5019465;28;20201;-77
2022/11/04 11:39:03;;;;;;;10.90;6.17;;;17.00;99.90;;;;;;5034690;28;20288;-83
2022/11/04 11:41:32;;;;;;;14.43;6.03;;;17.20;99.90;;;;;;5039082;28;20270;-83
2022/11/04 11:44:25;;;;;;;11.07;6.07;;;17.70;99.90;;;;;;5038861;28;20213;-84
2022/11/04 11:47:05;;;;;;;12.23;5.80;;;18.20;99.90;;;;;;5057171;28;20241;-83
2022/11/04 11:49:37;;;;;;;11.83;6.00;;;18.50;99.90;;;;;;5056799;28;20197;-83
2022/11/04 11:52:28;;;;;;;12.10;6.27;;;19.00;99.90;;;;;;5056537;28;20668;-83
2022/11/04 11:55:11;;;;;;;12.93;6.47;;;19.00;99.90;;;;;;5056342;28;20657;-85
2022/11/04 11:58:15;;;;;;;12.17;6.13;;;19.00;99.90;;;;;;5038335;28;20293;-84
2022/11/04 12:01:17;;;;;;;11.57;5.83;;;18.90;99.90;;;;;;5056558;28;20203;-84
2022/11/04 12:03:55;;;;;;;14.67;6.80;;;19.30;99.90;;;;;;5038217;28;20222;-85
2022/11/04 12:07:02;;;;;;;13.47;6.73;;;19.60;99.90;;;;;;5038278;28;20198;-85
2022/11/04 12:09:56;;;;;;;12.87;6.67;;;19.60;99.90;;;;;;5024675;28;20244;-84
2022/11/04 12:12:54;;;;;;;13.83;6.37;;;19.00;99.90;;;;;;5037954;28;20214;-81
2022/11/04 12:15:44;;;;;;;12.27;6.80;;;19.00;99.90;;;;;;5037566;28;20226;-79
2022/11/04 12:18:40;;;;;;;19.20;6.47;;;19.30;99.90;;;;;;5037402;28;20582;-78
2022/11/04 12:21:20;;;;;;;11.30;6.50;;;19.40;99.90;;;;;;5037902;28;20223;-79
2022/11/04 12:24:20;;;;;;;11.53;6.53;;;18.80;99.90;;;;;;5055497;28;20640;-80
2022/11/04 12:27:17;;;;;;;13.60;6.03;;;18.90;99.90;;;;;;5055878;28;20187;-79
2022/11/04 12:30:06;;;;;;;15.63;6.37;;;19.30;99.90;;;;;;5037970;28;20199;-79
2022/11/04 12:32:54;;;;;;;11.57;6.07;;;19.30;99.90;;;;;;5037722;28;20222;-80
2022/11/04 12:35:36;;;;;;;10.70;6.33;;;18.80;99.90;;;;;;5037733;28;20522;-79
2022/11/04 12:38:21;;;;;;;9.33;5.70;;;18.70;99.90;;;;;;5037629;28;20589;-78
2022/11/04 12:40:59;;;;;;;13.13;6.20;;;18.70;99.90;;;;;;5037591;28;20650;-79
2022/11/04 12:43:51;;;;;;;11.30;6.17;;;18.70;99.90;;;;;;5055229;28;20668;-78
2022/11/04 12:46:46;;;;;;;10.67;6.07;;;18.30;99.90;;;;;;5055493;28;20201;-79
2022/11/04 12:49:40;;;;;;;11.37;6.23;;;18.40;99.90;;;;;;5037208;28;20191;-79
2022/11/04 12:52:16;;;;;;;13.97;5.73;;;18.40;99.90;;;;;;5036364;28;20292;-79
2022/11/04 12:54:55;;;;;;;8.73;5.40;;;17.90;99.90;;;;;;5037843;28;20194;-78
2022/11/04 12:57:27;;;;;;;11.70;6.13;;;17.50;99.90;;;;;;5037221;28;20609;-77
2022/11/04 13:00:23;;;;;;;9.90;5.57;;;16.90;99.90;;;;;;5022141;28;20545;-82
2022/11/04 13:03:13;;;;;;;10.40;5.80;;;16.50;99.90;;;;;;5020624;28;20306;-81
2022/11/04 13:05:57;;;;;;;11.13;6.20;;;16.10;99.90;;;;;;5020915;28;20257;-80
2022/11/04 13:08:31;;;;;;;12.70;6.20;;;15.90;99.90;;;;;;5037565;28;20194;-82
2022/11/04 13:11:21;;;;;;;11.90;5.83;;;15.50;99.90;;;;;;5055496;28;20225;-78
2022/11/04 13:13:56;;;;;;;12.10;5.77;;;15.50;99.90;;;;;;5036810;28;20202;-78
2022/11/04 13:16:33;;;;;;;14.87;6.13;;;15.50;99.90;;;;;;5037363;28;20529;-77
2022/11/04 13:19:00;;;;;;;12.30;6.03;;;15.30;99.90;;;;;;5037344;28;20315;-77
2022/11/04 13:21:34;;;;;;;12.13;5.77;;;15.20;99.90;;;;;;5054828;28;20226;-77
2022/11/04 13:24:15;;;;;;;11.97;5.67;;;14.80;99.90;;;;;;5037101;28;20195;-76
2022/11/04 13:26:43;;;;;;;11.37;6.20;;;14.60;99.90;;;;;;5020640;28;20656;-77
2022/11/04 13:29:14;;;;;;;12.80;5.80;;;14.40;99.90;;;;;;5020298;28;20289;-77
2022/11/04 13:31:53;;;;;;;9.67;5.63;;;14.30;99.90;;;;;;5036653;28;20557;-77
2022/11/04 13:34:35;;;;;;;15.87;5.87;;;14.20;99.90;;;;;;5036495;28;20198;-79
2022/11/04 13:37:23;;;;;;;10.67;5.50;;;14.10;99.90;;;;;;5036669;28;20207;-78
2022/11/04 13:39:50;;;;;;;9.77;5.40;;;14.00;99.90;;;;;;5019933;28;20206;-79
2022/11/04 13:42:34;;;;;;;13.63;6.40;;;13.90;99.90;;;;;;5053913;28;20432;-79
2022/11/04 13:45:10;;;;;;;11.67;5.50;;;13.70;99.90;;;;;;5036240;28;20245;-78
2022/11/04 13:47:47;;;;;;;10.33;5.47;;;13.70;99.90;;;;;;5054661;28;20221;-79
2022/11/04 13:50:37;;;;;;;9.97;5.80;;;13.50;99.90;;;;;;5036454;28;20639;-78
2022/11/04 13:53:09;;;;;;;13.47;5.97;;;13.30;99.90;;;;;;5036300;28;20202;-77